Time;durP1;ratioP1;P1;durP2;ratioP2;P2;SDS_P1;SDS_P2;PMS_P1;PMS_P2;Temp;Humidity;BMP_temperature;BMP_pressure;BME280_temperature;BME280_humidity;BME280_pressure;Samples;Min_cycle;Max_cycle;Signal;HPM_P1;HPM_P2
2022/05/16 00:01:07;;;;;;;5.37;2.17;;;15.60;99.90;;;;;;5055312;28;21020;-39
2022/05/16 00:03:34;;;;;;;7.17;2.30;;;15.60;99.90;;;;;;5054716;28;20478;-38
2022/05/16 00:06:00;;;;;;;7.10;2.30;;;15.60;99.90;;;;;;5055354;28;20533;-37
2022/05/16 00:08:27;;;;;;;2.53;1.83;;;15.50;99.90;;;;;;5055594;28;20544;-39
2022/05/16 00:10:54;;;;;;;4.27;1.87;;;15.50;99.90;;;;;;5055603;28;20478;-40
2022/05/16 00:13:22;;;;;;;12.60;2.53;;;15.40;99.90;;;;;;5055382;28;20475;-40
2022/05/16 00:15:49;;;;;;;5.83;2.93;;;15.40;99.90;;;;;;5055340;28;20505;-37
2022/05/16 00:18:18;;;;;;;5.03;3.00;;;15.40;99.90;;;;;;5055418;28;20486;-44
2022/05/16 00:20:44;;;;;;;4.07;3.00;;;15.30;99.90;;;;;;5057170;28;20455;-48
2022/05/16 00:23:11;;;;;;;7.53;3.80;;;15.30;99.90;;;;;;5056046;28;20558;-41
2022/05/16 00:25:38;;;;;;;6.10;2.87;;;15.30;99.90;;;;;;5054992;28;20451;-39
2022/05/16 00:28:04;;;;;;;6.87;3.97;;;15.30;99.90;;;;;;5055216;28;20475;-40
2022/05/16 00:30:33;;;;;;;8.37;5.03;;;15.30;99.90;;;;;;5055214;28;20467;-39
2022/05/16 00:32:59;;;;;;;6.60;3.90;;;15.20;99.90;;;;;;5055073;28;20481;-40
2022/05/16 00:35:26;;;;;;;8.30;4.33;;;15.20;99.90;;;;;;5055279;28;20478;-39
2022/05/16 00:37:55;;;;;;;11.17;3.83;;;15.10;99.90;;;;;;5055116;28;20460;-39
2022/05/16 00:40:22;;;;;;;6.47;3.77;;;15.10;99.90;;;;;;5055158;28;20443;-40
2022/05/16 00:42:49;;;;;;;6.17;3.90;;;15.10;99.90;;;;;;5054989;28;20450;-39
2022/05/16 00:45:18;;;;;;;5.90;3.60;;;15.10;99.90;;;;;;5055580;28;20509;-41
2022/05/16 00:47:46;;;;;;;5.60;4.03;;;15.10;99.90;;;;;;5057064;28;20451;-41
2022/05/16 00:50:13;;;;;;;4.90;3.43;;;15.00;99.90;;;;;;5056341;28;20459;-39
2022/05/16 00:52:44;;;;;;;10.00;4.03;;;15.00;99.90;;;;;;5054703;28;20470;-38
2022/05/16 00:55:14;;;;;;;7.90;3.40;;;15.00;99.90;;;;;;5055031;28;20438;-39
2022/05/16 00:57:44;;;;;;;7.10;3.10;;;14.90;99.90;;;;;;5054854;28;20442;-39
2022/05/16 01:00:17;;;;;;;6.47;3.23;;;14.90;99.90;;;;;;5054878;28;20427;-38
2022/05/16 01:05:34;;;;;;;7.90;3.60;;;14.90;99.90;;;;;;5054938;28;20453;-39
2022/05/16 01:08:05;;;;;;;7.07;3.00;;;14.80;99.90;;;;;;5054935;28;20494;-40
2022/05/16 01:10:34;;;;;;;6.33;2.70;;;14.80;99.90;;;;;;5055007;28;20554;-38
2022/05/16 01:13:03;;;;;;;6.03;2.80;;;14.70;99.90;;;;;;5056979;28;20443;-44
2022/05/16 01:15:33;;;;;;;7.20;3.40;;;14.70;99.90;;;;;;5057451;28;20489;-42
2022/05/16 01:18:01;;;;;;;5.37;2.93;;;14.70;99.90;;;;;;5058875;28;20478;-39
2022/05/16 01:20:56;;;;;;;7.70;3.03;;;14.70;99.90;;;;;;5058523;28;20481;-38
2022/05/16 01:23:28;;;;;;;4.97;2.77;;;14.60;99.90;;;;;;5058515;28;20471;-38
2022/05/16 01:25:55;;;;;;;5.30;2.87;;;14.50;99.90;;;;;;5058472;28;20439;-41
2022/05/16 01:28:24;;;;;;;7.10;3.23;;;14.50;99.90;;;;;;5058437;28;20976;-39
2022/05/16 01:30:55;;;;;;;8.60;3.20;;;14.50;99.90;;;;;;5058223;28;20481;-39
2022/05/16 01:33:23;;;;;;;5.13;2.73;;;14.50;99.90;;;;;;5058360;28;20467;-39
2022/05/16 01:35:50;;;;;;;4.50;2.80;;;14.40;99.90;;;;;;5058437;28;20542;-39
2022/05/16 01:38:22;;;;;;;5.60;2.93;;;14.40;99.90;;;;;;5059728;28;20467;-43
2022/05/16 01:40:52;;;;;;;11.07;2.50;;;14.40;99.90;;;;;;5059295;28;20451;-39
2022/05/16 01:43:20;;;;;;;7.40;2.90;;;14.30;99.90;;;;;;5058165;28;20970;-39
2022/05/16 01:45:47;;;;;;;3.90;2.80;;;14.30;99.90;;;;;;5060220;28;20459;-39
2022/05/16 01:48:16;;;;;;;3.50;2.80;;;14.20;99.90;;;;;;5060687;28;20508;-39
2022/05/16 01:50:44;;;;;;;8.13;2.77;;;14.20;99.90;;;;;;5060341;28;20463;-39
2022/05/16 01:53:12;;;;;;;8.13;3.00;;;14.20;99.90;;;;;;5059989;28;20475;-38
2022/05/16 01:55:39;;;;;;;6.13;2.80;;;14.10;99.90;;;;;;5060267;28;21051;-38
2022/05/16 01:58:08;;;;;;;5.47;3.37;;;14.10;99.90;;;;;;5060586;28;20484;-40
2022/05/16 02:00:36;;;;;;;9.27;3.50;;;14.00;99.90;;;;;;5060720;28;20439;-38
2022/05/16 02:03:05;;;;;;;4.83;2.43;;;14.00;99.90;;;;;;5060622;28;20450;-39
2022/05/16 02:05:32;;;;;;;4.40;2.60;;;14.00;99.90;;;;;;5060204;28;20490;-37
2022/05/16 02:07:58;;;;;;;3.10;2.40;;;14.00;99.90;;;;;;5060175;28;20443;-38
2022/05/16 02:10:27;;;;;;;4.80;2.93;;;14.00;99.90;;;;;;5060087;28;20487;-41
2022/05/16 02:12:56;;;;;;;9.60;3.50;;;14.00;99.90;;;;;;5060144;28;20473;-38
2022/05/16 02:15:26;;;;;;;4.33;2.77;;;14.00;99.90;;;;;;5060176;28;20916;-36
2022/05/16 02:17:54;;;;;;;11.70;2.93;;;14.00;99.90;;;;;;5060278;28;20455;-37
2022/05/16 02:20:27;;;;;;;5.07;2.47;;;13.90;99.90;;;;;;5059913;28;20444;-39
2022/05/16 02:25:43;;;;;;;5.83;2.60;;;13.90;99.90;;;;;;5060000;28;20410;-38
2022/05/16 02:28:12;;;;;;;8.70;3.40;;;13.90;99.90;;;;;;5059160;28;20435;-39
2022/05/16 02:30:41;;;;;;;5.27;3.40;;;13.90;99.90;;;;;;5060151;28;20547;-42
2022/05/16 02:33:08;;;;;;;6.70;2.60;;;13.90;99.90;;;;;;5059685;28;20462;-39
2022/05/16 02:35:36;;;;;;;2.87;2.40;;;13.80;99.90;;;;;;5059976;28;20730;-40
2022/05/16 02:38:03;;;;;;;3.63;2.73;;;13.80;99.90;;;;;;5059653;28;20517;-39
2022/05/16 02:40:32;;;;;;;5.30;3.10;;;13.80;99.90;;;;;;5059955;28;20447;-39
2022/05/16 02:43:03;;;;;;;6.63;2.83;;;13.80;99.90;;;;;;5060147;28;20447;-39
2022/05/16 02:45:32;;;;;;;5.67;2.33;;;13.70;99.90;;;;;;5060470;28;20463;-41
2022/05/16 02:48:03;;;;;;;7.50;2.80;;;13.70;99.90;;;;;;5059524;28;20896;-40
2022/05/16 02:50:31;;;;;;;4.70;2.77;;;13.70;99.90;;;;;;5059860;28;20905;-42
2022/05/16 02:53:04;;;;;;;6.03;2.97;;;13.70;99.90;;;;;;5059406;28;20483;-42
2022/05/16 02:55:34;;;;;;;5.90;2.53;;;13.60;99.90;;;;;;5059504;28;20443;-38
2022/05/16 02:58:01;;;;;;;3.73;2.80;;;13.60;99.90;;;;;;5059753;28;20528;-39
2022/05/16 03:00:28;;;;;;;4.80;2.70;;;13.60;99.90;;;;;;5059797;28;20533;-39
2022/05/16 03:02:57;;;;;;;2.90;2.07;;;13.60;99.90;;;;;;5059062;28;20796;-41
2022/05/16 03:05:25;;;;;;;8.80;2.83;;;13.50;99.90;;;;;;5059301;28;20508;-42
2022/05/16 03:07:52;;;;;;;5.20;2.40;;;13.50;99.90;;;;;;5059390;28;20899;-38
2022/05/16 03:10:19;;;;;;;5.73;2.80;;;13.50;99.90;;;;;;5059537;28;20582;-39
2022/05/16 03:12:51;;;;;;;4.80;3.30;;;13.40;99.90;;;;;;5059010;28;20889;-39
2022/05/16 03:15:21;;;;;;;5.40;2.97;;;13.40;99.90;;;;;;5059581;28;20471;-37
2022/05/16 03:17:48;;;;;;;6.67;2.87;;;13.50;99.90;;;;;;5059065;28;20463;-38
2022/05/16 03:20:16;;;;;;;8.10;3.30;;;13.50;99.90;;;;;;5058791;28;20529;-38
2022/05/16 03:22:50;;;;;;;3.60;2.13;;;13.50;99.90;;;;;;5058878;28;20454;-38
2022/05/16 03:25:17;;;;;;;7.73;2.97;;;13.50;99.90;;;;;;5059394;28;20541;-39
2022/05/16 03:27:44;;;;;;;7.83;2.63;;;13.40;99.90;;;;;;5059389;28;20447;-40
2022/05/16 03:30:12;;;;;;;3.73;2.60;;;13.40;99.90;;;;;;5059381;28;20483;-39
2022/05/16 03:32:39;;;;;;;6.37;2.57;;;13.40;99.90;;;;;;5059957;28;20447;-44
2022/05/16 03:35:07;;;;;;;4.10;2.97;;;13.40;99.90;;;;;;5059443;28;20963;-39
2022/05/16 03:37:34;;;;;;;4.80;2.37;;;13.40;99.90;;;;;;5059752;28;20461;-40
2022/05/16 03:42:47;;;;;;;7.23;2.40;;;13.30;99.90;;;;;;5059783;28;20481;-37
2022/05/16 03:45:14;;;;;;;2.83;2.10;;;13.30;99.90;;;;;;5059335;28;20482;-36
2022/05/16 03:47:40;;;;;;;2.80;1.83;;;13.30;99.90;;;;;;5059631;28;20489;-37
2022/05/16 03:50:09;;;;;;;4.60;2.57;;;13.30;99.90;;;;;;5059068;28;20495;-39
2022/05/16 03:52:39;;;;;;;4.67;2.53;;;13.40;99.90;;;;;;5058708;28;20927;-37
2022/05/16 03:55:12;;;;;;;7.37;2.83;;;13.40;99.90;;;;;;5058902;28;20467;-39
2022/05/16 03:57:39;;;;;;;7.30;2.97;;;13.40;99.90;;;;;;5058756;28;20512;-40
2022/05/16 04:00:09;;;;;;;8.43;3.00;;;13.40;99.90;;;;;;5059183;28;20529;-37
2022/05/16 04:02:37;;;;;;;3.67;2.40;;;13.40;99.90;;;;;;5059024;28;20483;-38
2022/05/16 04:05:06;;;;;;;5.00;3.30;;;13.40;99.90;;;;;;5058486;28;20467;-39
2022/05/16 04:07:33;;;;;;;8.40;3.23;;;13.40;99.90;;;;;;5058347;28;20538;-39
2022/05/16 04:10:00;;;;;;;5.23;2.47;;;13.40;99.90;;;;;;5058481;28;20539;-37
2022/05/16 04:12:28;;;;;;;5.60;2.43;;;13.40;99.90;;;;;;5058627;28;20451;-38
2022/05/16 04:14:55;;;;;;;4.77;2.47;;;13.40;99.90;;;;;;5059014;28;20471;-40
2022/05/16 04:17:22;;;;;;;9.70;2.30;;;13.40;99.90;;;;;;5058109;28;20817;-40
2022/05/16 04:19:49;;;;;;;5.13;2.67;;;13.50;99.90;;;;;;5058324;28;20471;-39
2022/05/16 04:22:19;;;;;;;5.53;2.87;;;13.50;99.90;;;;;;5058689;28;20534;-38
2022/05/16 04:24:45;;;;;;;7.13;2.90;;;13.50;99.90;;;;;;5058685;28;20489;-38
2022/05/16 04:27:12;;;;;;;3.13;2.10;;;13.50;99.90;;;;;;5059144;28;20447;-37
2022/05/16 04:29:40;;;;;;;4.90;2.60;;;13.40;99.90;;;;;;5058891;28;20467;-39
2022/05/16 04:32:07;;;;;;;7.13;2.73;;;13.50;99.90;;;;;;5059093;28;20455;-38
2022/05/16 04:34:34;;;;;;;4.43;2.37;;;13.50;99.90;;;;;;5065136;28;20435;-37
2022/05/16 04:37:04;;;;;;;5.03;2.20;;;13.60;99.90;;;;;;5062770;28;20435;-39
2022/05/16 04:39:31;;;;;;;7.73;2.60;;;13.60;99.90;;;;;;5067558;28;20460;-39
2022/05/16 04:44:43;;;;;;;2.70;2.17;;;13.70;99.90;;;;;;5061905;28;20427;-39
2022/05/16 04:47:13;;;;;;;9.00;3.20;;;13.80;99.90;;;;;;5061254;28;20874;-40
2022/05/16 04:49:43;;;;;;;8.00;3.33;;;13.80;99.90;;;;;;5061548;28;20477;-38
2022/05/16 04:52:11;;;;;;;4.83;2.40;;;13.80;99.90;;;;;;5065222;28;20610;-40
2022/05/16 04:54:38;;;;;;;7.90;2.77;;;13.90;99.90;;;;;;5064923;28;20486;-38
2022/05/16 04:57:05;;;;;;;4.73;3.00;;;13.90;99.90;;;;;;5064446;28;20489;-38
2022/05/16 04:59:32;;;;;;;6.77;3.10;;;14.00;99.90;;;;;;5064888;28;20496;-39
2022/05/16 05:02:00;;;;;;;3.80;2.60;;;14.10;99.90;;;;;;5064880;28;20457;-37
2022/05/16 05:04:27;;;;;;;6.43;3.33;;;14.20;99.90;;;;;;5065120;28;20463;-40
2022/05/16 05:06:54;;;;;;;9.00;2.90;;;14.20;99.90;;;;;;5064979;28;20433;-41
2022/05/16 05:09:20;;;;;;;3.73;2.70;;;14.20;99.90;;;;;;5065257;28;20443;-39
2022/05/16 05:14:34;;;;;;;6.37;3.00;;;14.40;99.90;;;;;;5063580;28;20402;-39
2022/05/16 05:17:03;;;;;;;7.70;2.63;;;14.40;99.90;;;;;;5064513;28;20439;-37
2022/05/16 05:19:30;;;;;;;8.03;3.50;;;14.40;99.90;;;;;;5063600;28;20439;-37
2022/05/16 05:21:58;;;;;;;8.13;2.73;;;14.40;99.90;;;;;;5062806;28;20923;-37
2022/05/16 05:24:31;;;;;;;7.20;2.43;;;14.50;99.90;;;;;;5063667;28;20566;-40
2022/05/16 05:26:58;;;;;;;9.57;3.13;;;14.50;99.90;;;;;;5063625;28;20431;-38
2022/05/16 05:29:27;;;;;;;8.50;3.33;;;14.60;99.90;;;;;;5063619;28;20489;-38
2022/05/16 05:31:54;;;;;;;5.73;2.20;;;14.60;99.90;;;;;;5063634;28;20791;-39
2022/05/16 05:34:22;;;;;;;4.80;2.50;;;14.70;99.90;;;;;;5063712;28;20767;-39
2022/05/16 05:36:50;;;;;;;7.23;3.30;;;14.80;99.90;;;;;;5062903;28;20455;-40
2022/05/16 05:39:17;;;;;;;8.47;2.97;;;14.90;99.90;;;;;;5062983;28;20443;-41
2022/05/16 05:41:44;;;;;;;5.30;2.73;;;15.00;99.90;;;;;;5062846;28;20481;-37
2022/05/16 05:44:12;;;;;;;5.53;2.90;;;15.00;99.90;;;;;;5062626;28;20462;-39
2022/05/16 05:46:41;;;;;;;5.53;2.90;;;15.10;99.90;;;;;;5062634;28;20470;-37
2022/05/16 05:49:09;;;;;;;4.30;3.07;;;15.20;99.90;;;;;;5080414;28;20439;-32
2022/05/16 05:51:39;;;;;;;5.50;2.40;;;15.30;99.90;;;;;;5080881;28;20479;-30
2022/05/16 05:54:07;;;;;;;5.93;3.03;;;15.40;99.90;;;;;;5064093;28;20432;-37
2022/05/16 05:56:37;;;;;;;6.13;2.93;;;15.50;99.90;;;;;;5062199;28;20478;-38
2022/05/16 05:59:05;;;;;;;6.80;1.70;;;15.70;99.90;;;;;;5063072;28;20497;-42
2022/05/16 06:01:32;;;;;;;7.33;2.17;;;15.80;99.90;;;;;;5062792;28;20499;-40
2022/05/16 06:03:59;;;;;;;5.00;2.60;;;15.90;99.90;;;;;;5062054;28;20472;-41
2022/05/16 06:06:26;;;;;;;4.87;2.80;;;16.00;99.90;;;;;;5062207;28;20459;-39
2022/05/16 06:08:54;;;;;;;8.13;2.93;;;16.10;99.90;;;;;;5061717;28;20444;-39
2022/05/16 06:11:21;;;;;;;10.03;3.40;;;16.10;99.90;;;;;;5061128;28;20577;-40
2022/05/16 06:13:48;;;;;;;4.80;2.43;;;16.20;99.90;;;;;;5061869;28;20509;-40
2022/05/16 06:16:15;;;;;;;6.17;2.57;;;16.30;99.90;;;;;;5061954;28;20474;-39
2022/05/16 06:18:41;;;;;;;6.50;2.43;;;16.40;99.90;;;;;;5062178;28;20439;-39
2022/05/16 06:21:10;;;;;;;5.17;3.03;;;16.50;99.90;;;;;;5061607;28;20507;-39
2022/05/16 06:23:36;;;;;;;3.13;2.73;;;16.50;99.90;;;;;;5061147;28;20439;-40
2022/05/16 06:26:05;;;;;;;4.83;2.40;;;16.60;99.90;;;;;;5061949;28;20464;-39
2022/05/16 06:28:37;;;;;;;6.47;2.30;;;16.70;99.90;;;;;;5061545;28;20483;-40
2022/05/16 06:31:07;;;;;;;3.80;2.07;;;16.70;99.90;;;;;;5061042;28;20479;-38
2022/05/16 06:33:34;;;;;;;4.10;2.30;;;16.80;99.90;;;;;;5061363;28;20440;-40
2022/05/16 06:36:02;;;;;;;5.00;2.60;;;16.90;99.90;;;;;;5061556;28;20471;-38
2022/05/16 06:38:31;;;;;;;3.87;2.70;;;17.00;99.90;;;;;;5061697;28;20829;-42
2022/05/16 06:40:58;;;;;;;8.23;3.33;;;17.10;99.90;;;;;;5061659;28;20529;-40
2022/05/16 06:43:30;;;;;;;5.97;2.60;;;17.20;99.90;;;;;;5061350;28;20853;-40
2022/05/16 06:45:57;;;;;;;9.20;3.10;;;17.30;99.90;;;;;;5060810;28;20472;-38
2022/05/16 06:48:24;;;;;;;6.90;3.33;;;17.40;99.90;;;;;;5061254;28;20515;-40
2022/05/16 06:50:52;;;;;;;5.23;3.60;;;17.50;99.90;;;;;;5060456;28;20490;-39
2022/05/16 06:53:20;;;;;;;7.77;3.37;;;17.60;99.90;;;;;;5060683;28;20448;-37
2022/05/16 06:55:47;;;;;;;4.70;2.97;;;17.60;99.90;;;;;;5060572;28;20469;-40
2022/05/16 06:58:16;;;;;;;3.50;2.30;;;17.80;99.90;;;;;;5060926;28;20461;-41
2022/05/16 07:00:44;;;;;;;4.50;2.70;;;17.80;99.90;;;;;;5060371;28;20538;-38
2022/05/16 07:03:12;;;;;;;10.60;2.70;;;17.90;99.90;;;;;;5061634;28;20435;-39
2022/05/16 07:05:41;;;;;;;5.27;2.53;;;18.00;99.90;;;;;;5061077;28;20899;-40
2022/05/16 07:08:08;;;;;;;6.43;2.73;;;18.10;99.90;;;;;;5060832;28;20428;-41
2022/05/16 07:10:36;;;;;;;4.70;3.00;;;18.30;99.90;;;;;;5060395;28;20483;-40
2022/05/16 07:13:03;;;;;;;5.07;2.73;;;18.50;99.90;;;;;;5060437;28;20482;-40
2022/05/16 07:15:30;;;;;;;9.63;4.70;;;19.40;99.90;;;;;;5060244;28;20451;-41
2022/05/16 07:17:59;;;;;;;4.90;2.60;;;20.90;98.50;;;;;;5059146;28;20460;-41
2022/05/16 07:20:26;;;;;;;5.17;2.67;;;22.70;92.90;;;;;;5057709;28;20916;-39
2022/05/16 07:22:53;;;;;;;7.00;2.67;;;24.40;86.20;;;;;;5055877;28;20566;-40
2022/05/16 07:25:25;;;;;;;5.23;2.63;;;26.00;76.30;;;;;;5055587;28;20804;-39
2022/05/16 07:27:57;;;;;;;7.63;2.70;;;27.40;66.10;;;;;;5055638;28;20515;-40
2022/05/16 07:30:24;;;;;;;3.80;2.60;;;28.40;59.50;;;;;;5055299;28;20944;-40
2022/05/16 07:32:53;;;;;;;4.40;3.80;;;28.70;56.00;;;;;;5055690;28;20443;-38
2022/05/16 07:35:25;;;;;;;4.00;2.87;;;28.70;55.40;;;;;;5055598;28;20542;-42
2022/05/16 07:37:53;;;;;;;3.83;2.53;;;28.60;54.00;;;;;;5055755;28;20459;-40
2022/05/16 07:40:21;;;;;;;4.43;2.87;;;29.00;53.10;;;;;;5055462;28;20776;-40
2022/05/16 07:42:48;;;;;;;5.27;2.80;;;29.60;51.50;;;;;;5055133;28;20490;-38
2022/05/16 07:45:15;;;;;;;9.13;2.70;;;30.30;50.80;;;;;;5055437;28;20451;-48
2022/05/16 07:47:41;;;;;;;3.93;2.63;;;31.00;49.10;;;;;;5055493;28;20537;-39
2022/05/16 07:50:09;;;;;;;3.77;2.70;;;31.90;47.10;;;;;;5055307;28;20516;-41
2022/05/16 07:52:38;;;;;;;3.33;2.60;;;32.30;45.00;;;;;;5054856;28;20483;-42
2022/05/16 07:55:06;;;;;;;8.37;2.70;;;32.50;44.60;;;;;;5055151;28;20459;-42
2022/05/16 07:57:34;;;;;;;3.40;2.40;;;33.00;43.60;;;;;;5054885;28;20456;-42
2022/05/16 08:00:05;;;;;;;4.07;3.10;;;33.00;42.60;;;;;;5054992;28;20459;-39
2022/05/16 08:02:31;;;;;;;5.20;2.97;;;32.90;42.80;;;;;;5055099;28;20486;-43
2022/05/16 08:04:58;;;;;;;5.43;3.00;;;33.00;41.90;;;;;;5055107;28;20451;-39
2022/05/16 08:07:25;;;;;;;3.30;2.40;;;33.10;41.00;;;;;;5055216;28;20486;-49
2022/05/16 08:12:39;;;;;;;4.63;3.37;;;33.40;40.80;;;;;;5054654;28;20490;-43
2022/05/16 08:15:07;;;;;;;5.77;3.00;;;33.80;40.10;;;;;;5055004;28;20505;-40
2022/05/16 08:17:34;;;;;;;5.90;2.83;;;33.80;40.20;;;;;;5054675;28;20478;-44
2022/05/16 08:20:00;;;;;;;5.30;3.50;;;34.20;39.10;;;;;;5054833;28;20760;-44
2022/05/16 08:22:29;;;;;;;4.50;3.03;;;34.50;38.80;;;;;;5054841;28;20532;-45
2022/05/16 08:24:58;;;;;;;10.13;3.37;;;34.60;38.10;;;;;;5053944;28;20463;-41
2022/05/16 08:27:25;;;;;;;4.10;2.83;;;34.70;38.10;;;;;;5054725;28;20471;-42
2022/05/16 08:29:51;;;;;;;3.70;2.87;;;34.80;37.80;;;;;;5055141;28;20501;-39
2022/05/16 08:32:20;;;;;;;3.47;2.30;;;34.70;37.80;;;;;;5055631;28;20501;-40
2022/05/16 08:34:47;;;;;;;3.73;2.70;;;34.80;37.30;;;;;;5056135;28;20451;-44
2022/05/16 08:40:03;;;;;;;3.53;2.50;;;34.90;37.40;;;;;;5056297;28;20410;-42
2022/05/16 08:42:43;;;;;;;3.93;2.77;;;35.10;37.00;;;;;;5055113;28;20471;-41
2022/05/16 08:45:18;;;;;;;2.73;2.50;;;34.80;37.70;;;;;;5055400;28;20439;-37
2022/05/16 08:47:56;;;;;;;3.63;2.77;;;34.50;37.30;;;;;;5055063;28;20548;-40
2022/05/16 08:50:26;;;;;;;4.40;3.13;;;34.50;38.20;;;;;;5055073;28;20423;-42
2022/05/16 08:52:59;;;;;;;5.17;3.50;;;34.50;37.90;;;;;;5054937;28;20578;-39
2022/05/16 08:55:33;;;;;;;6.23;2.53;;;34.30;37.60;;;;;;5054740;28;20436;-39
2022/05/16 08:58:06;;;;;;;4.70;3.13;;;34.10;38.00;;;;;;5055005;28;20478;-39
2022/05/16 09:00:41;;;;;;;5.63;2.80;;;34.00;37.70;;;;;;5054782;28;20439;-40
2022/05/16 09:03:13;;;;;;;6.17;3.20;;;34.00;37.70;;;;;;5055453;28;20508;-39
2022/05/16 09:05:45;;;;;;;4.07;2.90;;;34.20;37.80;;;;;;5054553;28;20523;-40
2022/05/16 09:08:15;;;;;;;4.30;2.50;;;34.00;37.40;;;;;;5054968;28;20463;-41
2022/05/16 09:11:02;;;;;;;3.60;2.37;;;34.20;36.70;;;;;;5055253;28;20501;-42
2022/05/16 09:13:47;;;;;;;4.50;2.30;;;34.50;36.40;;;;;;5055403;28;20830;-40
2022/05/16 09:16:37;;;;;;;3.10;2.37;;;34.70;35.70;;;;;;5055447;28;20526;-39
2022/05/16 09:19:28;;;;;;;5.47;3.20;;;35.10;35.90;;;;;;5055036;28;20435;-40
2022/05/16 09:22:06;;;;;;;4.17;2.30;;;35.10;36.30;;;;;;5054581;28;20423;-37
2022/05/16 09:24:36;;;;;;;5.27;2.90;;;35.10;36.00;;;;;;5054854;28;20450;-39
2022/05/16 09:27:10;;;;;;;8.03;2.77;;;35.20;36.10;;;;;;5054847;28;20497;-39
2022/05/16 09:29:39;;;;;;;5.50;3.20;;;35.20;36.00;;;;;;5055254;28;20423;-40
2022/05/16 09:32:10;;;;;;;9.00;3.10;;;35.20;35.50;;;;;;5054582;28;20572;-41
2022/05/16 09:34:37;;;;;;;3.57;2.90;;;35.10;35.90;;;;;;5054504;28;20443;-40
2022/05/16 09:37:04;;;;;;;8.20;2.80;;;34.80;36.10;;;;;;5056897;28;20800;-38
2022/05/16 09:39:35;;;;;;;2.83;2.50;;;34.90;36.10;;;;;;5058759;28;20431;-39
2022/05/16 09:42:12;;;;;;;2.93;2.20;;;34.90;36.50;;;;;;5058493;28;20458;-41
2022/05/16 09:44:44;;;;;;;3.97;2.10;;;35.00;35.10;;;;;;5058853;28;20503;-40
2022/05/16 09:47:22;;;;;;;3.97;2.60;;;35.00;34.80;;;;;;5058557;28;20451;-44
2022/05/16 09:50:07;;;;;;;4.50;2.50;;;34.90;35.40;;;;;;5058829;28;20849;-40
2022/05/16 09:52:36;;;;;;;2.80;2.50;;;34.60;35.30;;;;;;5058236;28;20495;-40
2022/05/16 09:55:06;;;;;;;3.50;2.47;;;34.50;35.60;;;;;;5058687;28;20462;-42
2022/05/16 09:57:49;;;;;;;3.00;2.57;;;34.50;36.20;;;;;;5057323;28;20474;-43
2022/05/16 10:00:21;;;;;;;3.80;3.27;;;34.30;35.40;;;;;;5058244;28;20860;-40
2022/05/16 10:02:55;;;;;;;3.80;2.60;;;34.30;35.40;;;;;;5058481;28;20514;-40
2022/05/16 10:05:25;;;;;;;5.20;2.90;;;34.10;35.40;;;;;;5058261;28;20467;-45
2022/05/16 10:07:59;;;;;;;5.53;2.30;;;33.90;35.60;;;;;;5057795;28;20498;-42
2022/05/16 10:10:32;;;;;;;5.90;2.60;;;33.70;36.60;;;;;;5057252;28;20441;-39
2022/05/16 10:13:00;;;;;;;2.50;2.23;;;33.40;36.30;;;;;;5057366;28;20644;-41
2022/05/16 10:15:27;;;;;;;4.73;2.03;;;33.40;37.30;;;;;;5057283;28;20442;-41
2022/05/16 10:17:58;;;;;;;2.83;1.80;;;33.20;37.00;;;;;;5057213;28;20471;-42
2022/05/16 10:20:29;;;;;;;3.53;2.87;;;33.60;36.10;;;;;;5057483;28;20436;-39
2022/05/16 10:23:00;;;;;;;3.83;2.40;;;33.60;35.00;;;;;;5056922;28;20471;-41
2022/05/16 10:25:32;;;;;;;4.50;2.60;;;33.60;35.20;;;;;;5057078;28;20458;-41
2022/05/16 10:28:03;;;;;;;3.23;2.90;;;33.50;36.30;;;;;;5057142;28;20475;-42
2022/05/16 10:33:24;;;;;;;3.17;2.30;;;33.30;36.10;;;;;;5057245;28;20451;-41
2022/05/16 10:33:26;;;;;;;2.90;2.20;;;33.10;36.40;;;;;;5056678;28;20486;-40
2022/05/16 10:35:58;;;;;;;5.10;2.83;;;32.70;36.20;;;;;;5057050;28;20420;-42
2022/05/16 10:38:33;;;;;;;9.47;2.70;;;32.50;37.10;;;;;;5057100;28;20931;-38
2022/05/16 10:41:03;;;;;;;2.70;2.10;;;32.20;37.30;;;;;;5057046;28;20427;-40
2022/05/16 10:43:39;;;;;;;3.90;2.60;;;31.90;37.80;;;;;;5057439;28;20540;-40
2022/05/16 10:46:10;;;;;;;2.70;2.37;;;31.70;39.00;;;;;;5057106;28;20493;-38
2022/05/16 10:48:43;;;;;;;4.60;2.90;;;31.50;38.10;;;;;;5055840;28;20506;-39
2022/05/16 10:51:14;;;;;;;3.80;3.13;;;31.20;38.60;;;;;;5056739;28;20428;-39
2022/05/16 10:53:50;;;;;;;3.30;2.90;;;30.90;39.50;;;;;;5056477;28;20498;-38
2022/05/16 10:57:07;;;;;;;5.23;2.50;;;30.50;40.20;;;;;;5057250;28;20431;-41
2022/05/16 10:59:47;;;;;;;5.97;2.63;;;30.40;39.80;;;;;;4999990;28;20467;-51
2022/05/16 11:02:29;;;;;;;4.40;2.60;;;30.40;39.00;;;;;;5057040;28;20443;-39
2022/05/16 11:05:17;;;;;;;3.77;2.03;;;30.20;39.30;;;;;;5056521;28;20439;-39
2022/05/16 11:07:53;;;;;;;4.53;2.13;;;29.90;40.70;;;;;;5056093;28;20427;-39
2022/05/16 11:10:25;;;;;;;4.07;2.93;;;29.90;40.10;;;;;;5056405;28;20582;-37
2022/05/16 11:13:11;;;;;;;2.93;2.27;;;29.90;40.50;;;;;;5056259;28;21146;-38
2022/05/16 11:15:42;;;;;;;2.73;2.00;;;29.80;40.30;;;;;;5056862;28;20451;-41
2022/05/16 11:18:21;;;;;;;2.40;2.17;;;29.50;39.70;;;;;;5057134;28;20463;-49
2022/05/16 11:20:55;;;;;;;4.60;2.40;;;29.20;40.80;;;;;;5056279;28;20474;-40
2022/05/16 11:23:27;;;;;;;4.40;2.47;;;29.10;40.10;;;;;;5056232;28;20873;-40
2022/05/16 11:25:59;;;;;;;3.63;2.70;;;29.10;40.00;;;;;;5056250;28;20435;-42
2022/05/16 11:28:34;;;;;;;3.53;2.73;;;29.00;42.10;;;;;;5056819;28;20467;-41
2022/05/16 11:31:06;;;;;;;5.47;2.80;;;29.00;41.80;;;;;;5056334;28;20439;-41
2022/05/16 11:33:40;;;;;;;5.40;2.63;;;29.10;42.00;;;;;;5055986;28;20479;-40
2022/05/16 11:36:17;;;;;;;3.40;2.20;;;29.10;41.40;;;;;;5056132;28;20431;-41
2022/05/16 11:39:05;;;;;;;3.03;2.43;;;29.10;41.50;;;;;;5055974;28;20822;-41
2022/05/16 11:41:56;;;;;;;3.10;2.40;;;29.20;40.40;;;;;;5042916;28;20450;-42
2022/05/16 11:44:30;;;;;;;4.10;2.60;;;28.90;40.00;;;;;;5055896;28;20467;-39
2022/05/16 11:47:10;;;;;;;6.03;2.60;;;28.80;40.10;;;;;;5055853;28;20550;-39
2022/05/16 11:49:43;;;;;;;3.60;2.63;;;28.60;40.40;;;;;;5055969;28;20438;-41
2022/05/16 11:52:25;;;;;;;3.63;2.63;;;28.50;41.50;;;;;;5055300;28;20490;-40
2022/05/16 11:54:59;;;;;;;2.90;2.47;;;28.50;41.10;;;;;;5055627;28;20479;-40
2022/05/16 12:00:34;;;;;;;4.77;2.83;;;28.50;40.90;;;;;;5055300;28;20458;-38
2022/05/16 12:03:19;;;;;;;4.43;3.40;;;28.60;40.30;;;;;;5055716;28;21091;-41
2022/05/16 12:05:49;;;;;;;5.67;3.60;;;28.50;41.10;;;;;;5055830;28;20455;-39
2022/05/16 12:08:41;;;;;;;4.00;2.97;;;28.40;39.90;;;;;;5055224;28;20474;-42
2022/05/16 12:11:30;;;;;;;3.70;2.70;;;28.30;40.90;;;;;;5036243;28;20538;-41
2022/05/16 12:14:09;;;;;;;5.10;2.80;;;28.10;41.00;;;;;;5055341;28;20491;-38
2022/05/16 12:27:06;;;;;;;4.93;4.30;;;27.60;43.20;;;;;;5382517;22;20486;-38
2022/05/16 12:29:51;;;;;;;5.93;4.53;;;27.70;42.50;;;;;;5070950;28;20475;-39
2022/05/16 12:32:44;;;;;;;5.53;4.70;;;27.70;41.70;;;;;;5069322;28;20475;-40
2022/05/16 12:35:34;;;;;;;6.30;5.00;;;27.70;41.50;;;;;;5071602;28;20474;-38
2022/05/16 12:38:01;;;;;;;5.60;4.97;;;27.60;41.80;;;;;;5071108;28;20495;-39
2022/05/16 12:40:44;;;;;;;8.90;5.50;;;27.70;42.00;;;;;;5071668;28;20450;-39
2022/05/16 12:43:36;;;;;;;5.50;5.00;;;27.70;41.20;;;;;;5072179;28;20497;-40
2022/05/16 12:46:16;;;;;;;5.33;4.00;;;27.80;41.50;;;;;;5072529;28;20503;-38
2022/05/16 12:49:11;;;;;;;5.50;4.67;;;27.80;40.70;;;;;;5071438;28;20739;-40
2022/05/16 12:51:51;;;;;;;8.53;4.40;;;27.90;40.00;;;;;;5071173;28;20419;-39
2022/05/16 12:54:44;;;;;;;5.77;5.10;;;27.90;39.70;;;;;;5071883;28;20493;-40
2022/05/16 12:57:39;;;;;;;7.90;4.93;;;27.80;40.60;;;;;;5071725;28;20498;-41
2022/05/16 13:00:13;;;;;;;8.47;4.63;;;27.80;41.10;;;;;;5072029;28;20471;-38
2022/05/16 13:02:48;;;;;;;6.70;5.30;;;27.70;40.90;;;;;;5071947;28;20457;-40
2022/05/16 13:05:26;;;;;;;5.90;5.30;;;27.60;41.30;;;;;;5071537;28;20518;-41
2022/05/16 13:08:04;;;;;;;7.73;5.30;;;27.50;41.80;;;;;;5071308;28;20452;-42
2022/05/16 13:10:49;;;;;;;6.30;5.00;;;27.50;42.10;;;;;;5071875;28;20428;-37
2022/05/16 13:13:28;;;;;;;8.93;5.70;;;27.50;40.40;;;;;;5075940;28;20463;-39
2022/05/16 13:16:04;;;;;;;5.07;4.63;;;27.60;40.20;;;;;;5075784;28;20469;-39
2022/05/16 13:18:34;;;;;;;6.90;4.80;;;27.70;40.30;;;;;;5075130;28;20441;-38
2022/05/16 13:21:04;;;;;;;4.20;3.80;;;27.70;40.00;;;;;;5075653;28;20447;-44
2022/05/16 13:23:31;;;;;;;5.13;4.40;;;27.80;40.30;;;;;;5075756;28;20518;-40
2022/05/16 13:31:42;;;;;;;6.83;5.03;;;27.90;39.70;;;;;;5075836;28;20418;-39
2022/05/16 13:34:13;;;;;;;6.07;4.40;;;28.00;40.00;;;;;;5075652;28;20494;-37
2022/05/16 13:36:45;;;;;;;7.23;3.90;;;28.00;40.80;;;;;;5075493;28;20427;-40
2022/05/16 13:39:15;;;;;;;6.87;4.10;;;28.00;39.40;;;;;;5075171;28;20463;-38
2022/05/16 13:41:45;;;;;;;5.33;3.90;;;28.10;39.10;;;;;;5076095;28;20504;-39
2022/05/16 13:44:13;;;;;;;4.67;4.27;;;28.10;39.70;;;;;;5075249;28;20466;-40